Time;durP1;ratioP1;P1;durP2;ratioP2;P2;SDS_P1;SDS_P2;PMS_P1;PMS_P2;Temp;Humidity;BMP_temperature;BMP_pressure;BME280_temperature;BME280_humidity;BME280_pressure;Samples;Min_cycle;Max_cycle;Signal;HPM_P1;HPM_P2
2021/11/28 07:06:12;;;;;;;1.13;1.02;;;;;;;;;;5899812;23;21174;-80
2021/11/28 07:08:38;;;;;;;2.58;1.38;;;;;;;;;;4897605;29;20057;-79
2021/11/28 07:11:03;;;;;;;2.47;1.48;;;;;;;;;;4898408;29;20108;-78
2021/11/28 07:13:29;;;;;;;1.13;1.08;;;;;;;;;;4881632;29;20391;-78
2021/11/28 07:15:54;;;;;;;2.67;1.50;;;;;;;;;;4881790;29;20103;-79
2021/11/28 07:18:20;;;;;;;1.40;1.30;;;;;;;;;;4897978;29;20081;-81
2021/11/28 09:31:37;;;;;;;1.67;0.70;;;;;;;;;;4831926;29;20057;-87
2021/11/28 09:34:03;;;;;;;0.90;0.90;;;;;;;;;;4863343;29;20033;-86
2021/11/28 09:36:32;;;;;;;0.80;0.80;;;;;;;;;;4863103;29;20086;-87
2021/11/28 09:38:58;;;;;;;0.60;0.60;;;;;;;;;;4862992;29;20036;-87
2021/11/28 09:41:25;;;;;;;3.88;1.70;;;;;;;;;;4863316;29;20077;-84
2021/11/28 09:43:55;;;;;;;1.20;1.10;;;;;;;;;;4862686;29;20500;-83
2021/11/28 09:46:25;;;;;;;2.83;1.80;;;;;;;;;;4863152;29;20038;-86
2021/11/28 09:48:57;;;;;;;;;;;;;;;;;;4863533;29;20033;-87
2021/11/28 09:51:24;;;;;;;3.05;2.08;;;;;;;;;;4862687;29;19920;-83
2021/11/28 09:53:49;;;;;;;2.35;1.77;;;;;;;;;;4863170;29;20029;-89
2021/11/28 09:56:15;;;;;;;1.85;1.60;;;;;;;;;;4863248;29;20499;-88
2021/11/28 09:58:42;;;;;;;2.30;2.08;;;;;;;;;;4862816;29;20430;-83
2021/11/28 10:01:07;;;;;;;2.58;2.13;;;;;;;;;;4862535;29;20026;-86
2021/11/28 10:03:33;;;;;;;4.43;2.30;;;;;;;;;;4862855;29;20021;-90
2021/11/28 10:05:58;;;;;;;2.70;2.33;;;;;;;;;;4862798;29;20029;-81
2021/11/28 10:08:25;;;;;;;3.33;2.78;;;;;;;;;;4862677;29;20384;-90
2021/11/28 10:11:10;;;;;;;3.53;3.08;;;;;;;;;;4862968;29;20060;-91
2021/11/28 10:13:36;;;;;;;3.50;2.97;;;;;;;;;;4862745;29;20033;-91
2021/11/28 10:16:01;;;;;;;5.32;3.75;;;;;;;;;;4870769;29;20110;-90
2021/11/28 10:18:27;;;;;;;3.85;3.03;;;;;;;;;;4882587;29;20098;-84
2021/11/28 10:20:54;;;;;;;5.75;3.15;;;;;;;;;;4869182;29;20112;-89
2021/11/28 10:23:19;;;;;;;2.78;2.45;;;;;;;;;;4862742;29;20029;-87
2021/11/28 10:25:44;;;;;;;2.60;2.40;;;;;;;;;;4862484;29;20037;-89
2021/11/28 10:28:11;;;;;;;2.97;2.30;;;;;;;;;;4862246;29;20381;-85
2021/11/28 10:30:43;;;;;;;2.78;2.00;;;;;;;;;;4869266;29;20049;-85
2021/11/28 10:33:12;;;;;;;2.60;1.80;;;;;;;;;;4863823;29;20036;-85
2021/11/28 10:35:39;;;;;;;2.15;1.70;;;;;;;;;;4880194;29;20025;-84
2021/11/28 10:38:12;;;;;;;3.72;2.78;;;;;;;;;;4863217;29;20032;-82
2021/11/28 10:40:44;;;;;;;2.70;2.42;;;;;;;;;;4880015;29;20497;-79
2021/11/28 10:43:16;;;;;;;2.45;2.25;;;;;;;;;;4853612;29;20516;-85
2021/11/28 10:45:51;;;;;;;2.30;2.10;;;;;;;;;;4867550;29;20136;-78
2021/11/28 10:48:25;;;;;;;1.58;1.40;;;;;;;;;;4878146;29;20077;-78
2021/11/28 10:50:52;;;;;;;3.00;1.10;;;;;;;;;;4879618;29;20104;-82
2021/11/28 10:53:20;;;;;;;1.40;1.15;;;;;;;;;;4862649;29;20392;-85
2021/11/28 10:55:49;;;;;;;2.75;1.08;;;;;;;;;;4879600;29;20511;-82
2021/11/28 10:58:24;;;;;;;1.37;1.27;;;;;;;;;;4879746;29;20117;-81
2021/11/28 11:00:50;;;;;;;1.35;1.25;;;;;;;;;;4879522;29;20049;-83
2021/11/28 11:03:22;;;;;;;4.82;3.17;;;;;;;;;;4879925;29;20061;-88
2021/11/28 11:05:53;;;;;;;2.72;2.53;;;;;;;;;;4863531;29;20476;-84
2021/11/28 11:08:24;;;;;;;1.52;1.40;;;;;;;;;;4863725;29;20051;-84
2021/11/28 11:11:07;;;;;;;2.30;2.10;;;;;;;;;;4879983;29;20029;-84
2021/11/28 11:13:32;;;;;;;2.47;2.10;;;;;;;;;;4881108;29;20021;-81
2021/11/28 11:15:57;;;;;;;1.70;1.55;;;;;;;;;;4883363;29;20429;-79
2021/11/28 11:18:23;;;;;;;8.13;4.30;;;;;;;;;;4883320;29;20032;-82
2021/11/28 11:21:02;;;;;;;5.75;4.15;;;;;;;;;;4883529;29;20032;-81
2021/11/28 11:23:57;;;;;;;2.63;1.20;;;;;;;;;;4883193;29;20025;-79
2021/11/28 11:26:25;;;;;;;1.30;1.08;;;;;;;;;;4862729;29;20276;-82
2021/11/28 11:29:28;;;;;;;1.80;1.70;;;;;;;;;;4883133;29;20021;-79
2021/11/28 11:31:55;;;;;;;1.95;1.70;;;;;;;;;;4789638;30;20123;-79
2021/11/28 11:34:21;;;;;;;1.98;1.45;;;;;;;;;;4865972;29;20048;-82
2021/11/28 11:36:53;;;;;;;1.65;1.55;;;;;;;;;;4883029;29;20048;-85
2021/11/28 11:39:18;;;;;;;1.98;1.30;;;;;;;;;;4883350;29;20056;-84
2021/11/28 11:41:44;;;;;;;2.50;1.88;;;;;;;;;;4883242;29;20428;-86
2021/11/28 11:44:14;;;;;;;2.03;1.52;;;;;;;;;;4883586;29;20385;-85
2021/11/28 11:46:43;;;;;;;;;;;;;;;;;;4883542;29;20061;-82
2021/11/28 11:49:09;;;;;;;1.38;1.27;;;;;;;;;;4883216;29;19915;-80
2021/11/28 11:51:34;;;;;;;4.05;2.13;;;;;;;;;;4882884;29;20044;-81
2021/11/28 11:54:03;;;;;;;3.22;2.92;;;;;;;;;;4882909;29;20029;-79
2021/11/28 11:56:29;;;;;;;2.20;1.30;;;;;;;;;;4882741;29;20366;-84
2021/11/28 11:59:04;;;;;;;1.67;1.55;;;;;;;;;;4883410;29;20033;-84
2021/11/28 12:01:30;;;;;;;1.98;1.45;;;;;;;;;;4866183;29;20120;-84
2021/11/28 12:03:56;;;;;;;1.40;1.30;;;;;;;;;;4865907;29;20120;-89
2021/11/28 12:06:46;;;;;;;1.40;1.30;;;;;;;;;;4866236;29;20103;-84
2021/11/28 12:09:31;;;;;;;2.15;1.58;;;;;;;;;;4854792;29;20036;-84
2021/11/28 12:12:06;;;;;;;1.60;1.50;;;;;;;;;;4866551;29;20039;-83
2021/11/28 12:14:33;;;;;;;1.77;1.63;;;;;;;;;;4866303;29;20084;-83
2021/11/28 12:16:59;;;;;;;1.42;1.33;;;;;;;;;;4866169;29;20044;-88
2021/11/28 12:19:42;;;;;;;1.23;1.20;;;;;;;;;;4866550;29;20029;-88
2021/11/28 12:22:36;;;;;;;1.30;1.20;;;;;;;;;;4866792;29;20025;-87
2021/11/28 12:25:39;;;;;;;1.77;1.65;;;;;;;;;;4865541;29;20037;-87
2021/11/28 12:28:28;;;;;;;1.98;1.00;;;;;;;;;;4865531;29;20037;-83
2021/11/28 12:30:57;;;;;;;1.40;0.90;;;;;;;;;;4865624;29;20049;-86
2021/11/28 12:34:02;;;;;;;1.25;1.08;;;;;;;;;;4882658;29;20378;-87
2021/11/28 12:36:38;;;;;;;1.30;1.20;;;;;;;;;;4774009;30;20047;-84
2021/11/28 12:39:07;;;;;;;1.30;1.20;;;;;;;;;;4855148;29;20403;-84
2021/11/28 12:41:45;;;;;;;2.25;1.00;;;;;;;;;;4865714;29;20040;-84
2021/11/28 12:44:15;;;;;;;1.50;1.33;;;;;;;;;;4865501;29;20388;-85
2021/11/28 12:46:40;;;;;;;1.20;1.10;;;;;;;;;;4865542;29;20033;-84
2021/11/28 12:49:24;;;;;;;1.80;1.48;;;;;;;;;;4865242;29;20032;-84
2021/11/28 12:51:50;;;;;;;2.05;1.60;;;;;;;;;;4865582;29;20029;-84
2021/11/28 12:54:26;;;;;;;1.50;1.40;;;;;;;;;;4865719;29;20529;-84
2021/11/28 12:57:18;;;;;;;1.33;1.20;;;;;;;;;;4865348;29;20065;-84
2021/11/28 13:00:19;;;;;;;1.92;1.35;;;;;;;;;;4871236;29;20071;-87
2021/11/28 13:02:47;;;;;;;1.60;1.50;;;;;;;;;;4865560;29;20128;-86
2021/11/28 13:05:32;;;;;;;2.75;1.83;;;;;;;;;;4865477;29;20064;-85
2021/11/28 13:08:01;;;;;;;2.83;1.92;;;;;;;;;;4865187;29;20076;-85
2021/11/28 13:10:33;;;;;;;3.65;2.33;;;;;;;;;;4865331;29;20044;-88
2021/11/28 13:13:18;;;;;;;2.83;2.08;;;;;;;;;;4865212;29;20037;-87
2021/11/28 13:15:59;;;;;;;4.57;1.98;;;;;;;;;;4865012;29;20036;-87
2021/11/28 13:18:32;;;;;;;6.63;4.78;;;;;;;;;;4865369;29;20036;-84
2021/11/28 13:21:07;;;;;;;5.47;3.70;;;;;;;;;;4865076;29;20487;-88
2021/11/28 13:23:38;;;;;;;9.52;5.53;;;;;;;;;;4864903;29;20032;-88
2021/11/28 13:26:03;;;;;;;5.18;3.78;;;;;;;;;;4881636;29;20029;-88
2021/11/28 13:28:34;;;;;;;13.25;7.93;;;;;;;;;;4864983;29;20077;-86
2021/11/28 13:31:07;;;;;;;2.22;1.75;;;;;;;;;;4864734;29;20045;-87
2021/11/28 13:33:34;;;;;;;1.98;1.60;;;;;;;;;;4864832;29;20029;-86
2021/11/28 13:36:01;;;;;;;1.40;1.30;;;;;;;;;;4864139;29;20067;-88
2021/11/28 13:38:31;;;;;;;1.63;1.50;;;;;;;;;;4881425;29;20033;-87
2021/11/28 13:41:18;;;;;;;1.65;1.55;;;;;;;;;;4881539;29;20081;-86
2021/11/28 13:43:51;;;;;;;3.25;2.95;;;;;;;;;;4864620;29;20029;-86
2021/11/28 13:46:41;;;;;;;2.75;2.47;;;;;;;;;;4864897;29;20029;-86
2021/11/28 13:49:13;;;;;;;2.30;2.10;;;;;;;;;;4868876;29;20485;-85
2021/11/28 13:51:52;;;;;;;1.77;1.40;;;;;;;;;;4864268;29;20484;-86
2021/11/28 13:54:21;;;;;;;1.65;1.50;;;;;;;;;;4864216;29;20400;-88
2021/11/28 13:56:50;;;;;;;3.20;1.70;;;;;;;;;;4864397;29;20033;-87
2021/11/28 13:59:22;;;;;;;3.33;1.63;;;;;;;;;;4881130;29;20036;-85
2021/11/28 14:02:14;;;;;;;2.03;1.65;;;;;;;;;;4864983;29;20057;-86
2021/11/28 14:04:44;;;;;;;1.65;1.52;;;;;;;;;;4869781;29;20081;-86
2021/11/28 14:07:16;;;;;;;1.55;1.35;;;;;;;;;;4864654;29;20017;-87
2021/11/28 14:09:43;;;;;;;4.93;3.08;;;;;;;;;;4864531;29;20040;-87
2021/11/28 14:12:13;;;;;;;8.60;6.10;;;;;;;;;;4880836;29;20108;-87
2021/11/28 14:14:50;;;;;;;2.65;2.05;;;;;;;;;;4864143;29;20036;-85
2021/11/28 14:17:16;;;;;;;1.45;1.35;;;;;;;;;;4864137;29;20025;-85
2021/11/28 14:19:43;;;;;;;1.35;1.25;;;;;;;;;;4864000;29;20550;-87
2021/11/28 14:22:35;;;;;;;1.92;1.60;;;;;;;;;;4864129;29;20021;-85
2021/11/28 14:25:16;;;;;;;1.88;1.52;;;;;;;;;;4863921;29;20037;-86
2021/11/28 14:27:42;;;;;;;2.80;1.50;;;;;;;;;;4863999;29;20056;-87
2021/11/28 14:30:08;;;;;;;2.90;2.70;;;;;;;;;;4863869;29;20056;-86
2021/11/28 14:32:33;;;;;;;3.05;1.60;;;;;;;;;;4863994;29;20029;-86
2021/11/28 14:35:20;;;;;;;1.60;1.33;;;;;;;;;;4864149;29;20036;-87
2021/11/28 14:38:10;;;;;;;1.58;1.40;;;;;;;;;;4863527;29;20473;-87
2021/11/28 14:40:35;;;;;;;1.30;1.20;;;;;;;;;;4850341;29;20045;-87
2021/11/28 14:43:02;;;;;;;1.35;1.27;;;;;;;;;;4864016;29;20040;-87
2021/11/28 14:45:28;;;;;;;1.25;1.00;;;;;;;;;;4863451;29;20029;-87
2021/11/28 14:48:20;;;;;;;1.30;1.20;;;;;;;;;;4862902;29;20066;-86
2021/11/28 14:50:54;;;;;;;1.55;1.42;;;;;;;;;;4880041;29;20041;-85
2021/11/28 14:53:21;;;;;;;1.50;1.40;;;;;;;;;;4854606;29;20085;-83
2021/11/28 14:55:49;;;;;;;1.48;1.38;;;;;;;;;;4872139;29;20040;-83
2021/11/28 14:58:33;;;;;;;1.30;1.20;;;;;;;;;;4854511;29;20032;-84
2021/11/28 15:01:17;;;;;;;1.40;1.30;;;;;;;;;;4853110;29;20033;-85
2021/11/28 15:04:07;;;;;;;1.80;1.10;;;;;;;;;;4852322;29;20029;-86
2021/11/28 15:07:03;;;;;;;1.35;1.25;;;;;;;;;;4854936;29;20506;-89
2021/11/28 15:09:45;;;;;;;1.10;1.10;;;;;;;;;;4845288;29;20480;-85
2021/11/28 15:12:25;;;;;;;2.13;1.20;;;;;;;;;;4845107;29;20121;-91
2021/11/28 15:14:52;;;;;;;2.08;1.15;;;;;;;;;;4862155;29;20033;-85
2021/11/28 15:17:17;;;;;;;3.00;2.00;;;;;;;;;;4861434;29;20044;-82
2021/11/28 15:19:43;;;;;;;3.10;2.13;;;;;;;;;;4860052;29;20038;-87
2021/11/28 15:22:08;;;;;;;2.35;1.85;;;;;;;;;;4861580;29;20038;-87
2021/11/28 15:24:34;;;;;;;1.90;1.40;;;;;;;;;;4844917;29;20392;-87
2021/11/28 15:27:00;;;;;;;1.88;1.77;;;;;;;;;;4844974;29;20040;-86
2021/11/28 15:29:27;;;;;;;1.20;1.10;;;;;;;;;;4844732;29;20124;-88
2021/11/28 15:31:54;;;;;;;1.30;1.20;;;;;;;;;;4844733;29;20054;-84
2021/11/28 15:34:20;;;;;;;1.50;1.20;;;;;;;;;;4861186;29;20033;-89
2021/11/28 15:36:52;;;;;;;1.27;1.02;;;;;;;;;;4844828;29;20022;-87
2021/11/28 15:39:19;;;;;;;1.40;1.30;;;;;;;;;;4844922;29;20034;-88
2021/11/28 15:41:45;;;;;;;1.30;1.20;;;;;;;;;;4845177;29;20121;-88
2021/11/28 15:44:11;;;;;;;1.27;1.17;;;;;;;;;;4845123;29;20030;-91
2021/11/28 15:46:36;;;;;;;1.30;1.20;;;;;;;;;;4845331;29;20381;-89
2021/11/28 15:49:02;;;;;;;1.38;1.27;;;;;;;;;;4844549;29;20033;-84
2021/11/28 15:51:27;;;;;;;1.40;1.30;;;;;;;;;;4845393;29;20030;-89
2021/11/28 15:53:53;;;;;;;1.70;1.30;;;;;;;;;;4845201;29;20037;-94
2021/11/28 15:56:18;;;;;;;1.80;1.15;;;;;;;;;;4845063;29;20029;-90
2021/11/28 18:12:00;;;;;;;1.83;1.67;;;;;;;;;;4847097;29;20079;-84
2021/11/28 18:14:26;;;;;;;1.77;1.10;;;;;;;;;;4879667;29;20073;-84
2021/11/28 18:16:52;;;;;;;2.65;1.92;;;;;;;;;;4879922;29;20113;-84
2021/11/28 18:19:19;;;;;;;5.88;2.60;;;;;;;;;;4877240;29;20426;-86
2021/11/28 18:21:45;;;;;;;1.70;1.50;;;;;;;;;;4877788;29;20037;-87
2021/11/28 18:24:11;;;;;;;2.20;1.50;;;;;;;;;;4877842;29;20040;-85
2021/11/28 18:26:37;;;;;;;1.50;1.20;;;;;;;;;;4879029;29;20032;-84
2021/11/28 18:29:03;;;;;;;1.67;1.30;;;;;;;;;;4877492;29;20044;-86
2021/11/28 18:31:29;;;;;;;1.50;1.40;;;;;;;;;;4873260;29;20029;-89
2021/11/28 18:33:56;;;;;;;1.30;1.20;;;;;;;;;;4880083;29;20033;-86
2021/11/28 18:36:22;;;;;;;1.67;1.30;;;;;;;;;;4880022;29;20025;-87
2021/11/28 18:38:49;;;;;;;5.43;3.38;;;;;;;;;;4879493;29;20489;-88
2021/11/28 18:41:15;;;;;;;4.13;2.00;;;;;;;;;;4878300;29;20029;-84
2021/11/28 18:43:41;;;;;;;4.07;2.25;;;;;;;;;;4871420;29;20026;-85
2021/11/28 18:46:06;;;;;;;5.70;3.58;;;;;;;;;;4868632;29;20022;-86
2021/11/28 18:48:32;;;;;;;5.43;3.72;;;;;;;;;;4870382;29;20021;-86
2021/11/28 18:50:57;;;;;;;8.68;5.20;;;;;;;;;;4869602;29;20362;-88
2021/11/28 18:53:23;;;;;;;7.10;4.90;;;;;;;;;;4868933;29;20081;-86
2021/11/28 18:55:48;;;;;;;2.83;2.38;;;;;;;;;;4863457;29;20469;-87
2021/11/28 18:58:14;;;;;;;4.07;2.90;;;;;;;;;;4860563;29;20030;-87
2021/11/28 19:00:40;;;;;;;4.80;2.88;;;;;;;;;;4862460;29;20033;-87
2021/11/28 19:03:05;;;;;;;3.20;2.38;;;;;;;;;;4868719;29;20030;-86
2021/11/28 19:05:31;;;;;;;2.13;1.33;;;;;;;;;;4868456;29;20025;-85
2021/11/28 19:07:57;;;;;;;2.80;1.52;;;;;;;;;;4868405;29;20100;-85
2021/11/28 19:10:23;;;;;;;3.13;2.13;;;;;;;;;;4864023;29;20029;-85
2021/11/28 19:13:01;;;;;;;3.03;2.17;;;;;;;;;;4860361;29;20052;-86
2021/11/28 19:15:28;;;;;;;2.83;1.88;;;;;;;;;;4861637;29;20370;-86
2021/11/28 19:17:53;;;;;;;7.53;3.28;;;;;;;;;;4860658;29;20026;-86
2021/11/28 19:20:20;;;;;;;11.85;3.85;;;;;;;;;;4879042;29;20032;-83
2021/11/28 19:22:47;;;;;;;51.42;17.30;;;;;;;;;;4884284;29;20028;-86
2021/11/28 19:25:13;;;;;;;95.80;32.00;;;;;;;;;;4897329;29;20032;-84
2021/11/28 19:27:39;;;;;;;25.83;10.90;;;;;;;;;;4886558;29;20425;-83
2021/11/28 19:30:06;;;;;;;15.80;7.63;;;;;;;;;;4878806;29;20029;-84
2021/11/28 19:32:32;;;;;;;70.95;26.52;;;;;;;;;;4878426;29;20029;-84
2021/11/28 19:34:58;;;;;;;64.95;25.52;;;;;;;;;;4881749;29;20036;-83
2021/11/28 19:37:23;;;;;;;24.33;9.98;;;;;;;;;;4902126;29;20025;-85
2021/11/28 19:39:49;;;;;;;14.57;7.82;;;;;;;;;;4900881;29;20429;-84
2021/11/28 19:42:15;;;;;;;9.02;6.22;;;;;;;;;;4900727;29;20020;-85
2021/11/28 19:44:41;;;;;;;7.82;5.55;;;;;;;;;;4901123;29;20475;-85
2021/11/28 19:47:07;;;;;;;10.45;5.60;;;;;;;;;;4901294;29;20448;-86
2021/11/28 19:49:33;;;;;;;8.60;6.07;;;;;;;;;;4893749;29;20399;-85
2021/11/28 19:51:58;;;;;;;5.13;3.17;;;;;;;;;;4886134;29;20116;-82
2021/11/28 19:54:24;;;;;;;3.80;2.85;;;;;;;;;;4898222;29;20083;-81
2021/11/28 19:56:49;;;;;;;1.80;1.60;;;;;;;;;;4901730;29;20104;-84
2021/11/28 19:59:15;;;;;;;5.10;3.60;;;;;;;;;;4900353;29;20039;-80
2021/11/28 20:01:41;;;;;;;2.65;1.98;;;;;;;;;;4901655;29;20077;-82
2021/11/28 20:04:07;;;;;;;2.13;1.60;;;;;;;;;;4900111;29;20131;-83
2021/11/28 20:06:33;;;;;;;2.03;1.80;;;;;;;;;;4889788;29;20090;-83
2021/11/28 20:08:59;;;;;;;2.00;1.80;;;;;;;;;;4882781;29;20051;-84
2021/11/28 20:11:27;;;;;;;1.35;1.20;;;;;;;;;;4882857;29;20060;-85
2021/11/28 20:13:57;;;;;;;2.47;1.50;;;;;;;;;;4866291;29;20468;-83
2021/11/28 20:16:23;;;;;;;;;;;;;;;;;;4866306;29;20029;-81
2021/11/28 20:18:49;;;;;;;1.40;1.25;;;;;;;;;;4882404;29;19920;-82
2021/11/28 20:21:14;;;;;;;2.03;1.85;;;;;;;;;;4882798;29;20049;-83
2021/11/28 20:23:40;;;;;;;3.50;2.95;;;;;;;;;;4866506;29;20192;-81
2021/11/28 20:26:05;;;;;;;1.98;1.50;;;;;;;;;;4883836;29;20057;-88
2021/11/28 20:28:31;;;;;;;3.78;2.90;;;;;;;;;;4866917;29;20029;-86
2021/11/28 20:30:57;;;;;;;3.25;2.00;;;;;;;;;;4867064;29;20085;-86
2021/11/28 20:33:23;;;;;;;1.38;1.10;;;;;;;;;;4866585;29;20035;-85
2021/11/28 20:35:49;;;;;;;2.08;1.88;;;;;;;;;;4866218;29;20068;-86
2021/11/28 20:38:15;;;;;;;1.70;1.40;;;;;;;;;;4866518;29;20062;-87
2021/11/28 20:40:42;;;;;;;2.83;1.38;;;;;;;;;;4866375;29;20026;-86
2021/11/28 20:43:08;;;;;;;1.42;1.30;;;;;;;;;;4866276;29;20124;-88
2021/11/28 20:45:34;;;;;;;1.40;1.30;;;;;;;;;;4863614;29;20060;-86
2021/11/28 20:48:00;;;;;;;3.30;1.70;;;;;;;;;;4864807;29;20028;-87
2021/11/28 20:50:26;;;;;;;1.40;1.30;;;;;;;;;;4865841;29;20384;-86
2021/11/28 20:52:51;;;;;;;1.52;1.40;;;;;;;;;;4881762;29;20484;-86
2021/11/28 20:55:17;;;;;;;1.45;1.17;;;;;;;;;;4865669;29;20033;-86
2021/11/28 20:57:43;;;;;;;2.30;2.10;;;;;;;;;;4865584;29;20037;-87
2021/11/28 21:00:12;;;;;;;1.58;1.30;;;;;;;;;;4864813;29;20495;-87
2021/11/28 21:02:38;;;;;;;1.58;1.40;;;;;;;;;;4865803;29;20088;-87
2021/11/28 21:05:05;;;;;;;1.10;1.00;;;;;;;;;;4865725;29;20127;-87
2021/11/28 21:07:36;;;;;;;3.22;1.20;;;;;;;;;;4882131;29;20104;-87
2021/11/28 21:10:13;;;;;;;2.45;1.30;;;;;;;;;;4881717;29;20043;-87
2021/11/28 21:12:39;;;;;;;2.67;1.48;;;;;;;;;;4865229;29;20049;-87
2021/11/28 21:15:07;;;;;;;1.83;1.48;;;;;;;;;;4865350;29;20085;-87
2021/11/28 21:17:33;;;;;;;1.77;1.40;;;;;;;;;;4865295;29;20641;-87
2021/11/28 21:19:59;;;;;;;1.80;1.27;;;;;;;;;;4865041;29;20068;-86
2021/11/28 21:22:25;;;;;;;2.35;1.50;;;;;;;;;;4865221;29;20025;-87
2021/11/28 21:24:54;;;;;;;1.60;1.50;;;;;;;;;;4865488;29;20039;-87
2021/11/28 21:27:20;;;;;;;1.20;1.10;;;;;;;;;;4865018;29;20085;-87
2021/11/28 21:29:45;;;;;;;1.38;1.13;;;;;;;;;;4864905;29;20029;-87
2021/11/28 21:32:11;;;;;;;1.38;1.27;;;;;;;;;;4865116;29;20036;-87
2021/11/28 21:34:36;;;;;;;1.65;1.52;;;;;;;;;;4865095;29;20032;-87
2021/11/28 21:37:04;;;;;;;2.35;1.42;;;;;;;;;;4864912;29;20096;-87
2021/11/28 21:39:30;;;;;;;2.78;1.35;;;;;;;;;;4864700;29;20127;-87
2021/11/28 21:41:56;;;;;;;1.33;1.23;;;;;;;;;;4864921;29;20064;-86
2021/11/28 21:44:21;;;;;;;1.88;1.00;;;;;;;;;;4864681;29;20032;-86
2021/11/28 21:46:47;;;;;;;1.60;1.20;;;;;;;;;;4864897;29;20032;-86
2021/11/28 21:49:13;;;;;;;2.20;1.10;;;;;;;;;;4864460;29;20070;-87
2021/11/28 21:51:39;;;;;;;1.10;1.00;;;;;;;;;;4864480;29;20029;-86
2021/11/28 21:54:08;;;;;;;1.50;1.40;;;;;;;;;;4864660;29;20515;-83
2021/11/28 21:56:34;;;;;;;1.90;1.10;;;;;;;;;;4864140;29;20032;-86
2021/11/28 21:59:00;;;;;;;2.35;1.08;;;;;;;;;;4864340;29;20472;-86
2021/11/28 22:01:25;;;;;;;1.20;1.05;;;;;;;;;;4881279;29;20084;-85
2021/11/28 22:03:52;;;;;;;1.75;1.00;;;;;;;;;;4864227;29;20029;-86
2021/11/28 22:06:17;;;;;;;1.48;1.20;;;;;;;;;;4864271;29;20036;-85
2021/11/28 22:08:43;;;;;;;1.13;1.10;;;;;;;;;;4864180;29;20033;-86
2021/11/28 22:11:08;;;;;;;3.55;1.30;;;;;;;;;;4864212;29;20053;-87
2021/11/28 22:13:34;;;;;;;1.88;1.17;;;;;;;;;;4864458;29;20563;-85
2021/11/28 22:15:59;;;;;;;1.60;1.27;;;;;;;;;;4864297;29;20124;-86
2021/11/28 22:18:26;;;;;;;1.90;1.30;;;;;;;;;;4864073;29;20040;-85
2021/11/28 22:20:51;;;;;;;1.30;1.20;;;;;;;;;;4863859;29;20127;-86
2021/11/28 22:23:17;;;;;;;1.63;1.20;;;;;;;;;;4864086;29;20146;-85
2021/11/28 22:25:43;;;;;;;1.50;1.40;;;;;;;;;;4863997;29;20059;-87
2021/11/28 22:28:08;;;;;;;1.92;1.30;;;;;;;;;;4864321;29;20044;-86
2021/11/28 22:30:35;;;;;;;1.58;1.33;;;;;;;;;;4863980;29;20025;-87
2021/11/28 22:33:01;;;;;;;1.50;1.38;;;;;;;;;;4864379;29;20035;-87
2021/11/28 22:35:28;;;;;;;1.27;1.17;;;;;;;;;;4864368;29;20025;-86
2021/11/28 22:37:55;;;;;;;1.48;1.10;;;;;;;;;;4863671;29;20035;-85
